createdAt,value
2022-11-22T00:00:53.564Z,99806.09
2022-11-22T00:03:21.672Z,99807.66
2022-11-22T00:05:49.723Z,99801.19
2022-11-22T00:08:17.855Z,99798.41
2022-11-22T00:10:49.099Z,99797.47
2022-11-22T00:13:17.469Z,99789.03
2022-11-22T00:15:45.853Z,99784.72
2022-11-22T00:18:13.939Z,99782.81
2022-11-22T00:20:42.005Z,99773.06
2022-11-22T00:23:10.031Z,99766.34
2022-11-22T00:25:38.091Z,99781.72
2022-11-22T00:28:07.592Z,99778.97
2022-11-22T00:30:35.737Z,99772.47
2022-11-22T00:33:03.821Z,99765.97
2022-11-22T00:35:31.986Z,99763.09
2022-11-22T00:38:00.066Z,99754.34
2022-11-22T00:40:28.160Z,99755.31
2022-11-22T00:42:56.244Z,99764.31
2022-11-22T00:45:25.729Z,99755.16
2022-11-22T00:47:53.843Z,99756.00
2022-11-22T00:50:21.961Z,99748.66
2022-11-22T00:52:49.974Z,99748.44
2022-11-22T00:55:18.200Z,99742.31
2022-11-22T00:57:46.282Z,99743.16
2022-11-22T01:00:14.705Z,99740.25
2022-11-22T01:02:44.211Z,99730.53
2022-11-22T01:05:12.321Z,99726.66
2022-11-22T01:07:40.437Z,99729.22
2022-11-22T01:10:08.896Z,99726.66
2022-11-22T01:12:37.095Z,99720.19
2022-11-22T01:15:05.755Z,99720.09
2022-11-22T01:17:33.962Z,99716.94
2022-11-22T01:20:03.669Z,99708.03
2022-11-22T01:22:31.855Z,99709.00
2022-11-22T01:24:59.977Z,99708.78
2022-11-22T01:27:28.061Z,99709.16
2022-11-22T01:29:56.186Z,99713.59
2022-11-22T01:32:24.606Z,99705.78
2022-11-22T01:34:52.821Z,99703.63
2022-11-22T01:37:22.322Z,99691.00
2022-11-22T01:39:50.404Z,99692.06
2022-11-22T01:42:18.458Z,99693.03
2022-11-22T01:44:48.699Z,99684.59
2022-11-22T01:47:18.623Z,99688.81
2022-11-22T01:49:49.906Z,99678.09
2022-11-22T01:52:19.697Z,99665.75
2022-11-22T01:54:52.752Z,99661.16
2022-11-22T01:57:23.445Z,99653.47
2022-11-22T01:59:53.145Z,99655.03
2022-11-22T02:02:21.252Z,99646.00
2022-11-22T02:04:51.648Z,99646.13
2022-11-22T02:07:22.847Z,99637.47
2022-11-22T02:09:53.266Z,99643.00
2022-11-22T02:12:24.681Z,99637.84
2022-11-22T02:14:53.633Z,99631.59
2022-11-22T02:17:21.767Z,99626.56
2022-11-22T02:19:50.860Z,99618.63
2022-11-22T02:22:29.821Z,99607.31
2022-11-22T02:25:03.449Z,99616.81
2022-11-22T02:27:33.016Z,99606.38
2022-11-22T02:30:01.127Z,99601.34
2022-11-22T02:32:29.278Z,99603.16
2022-11-22T02:34:57.351Z,99603.00
2022-11-22T02:37:26.723Z,99593.25
2022-11-22T02:39:58.422Z,99589.66
2022-11-22T02:42:26.781Z,99590.13
2022-11-22T02:44:56.259Z,99592.78
2022-11-22T02:47:24.299Z,99583.16
2022-11-22T02:49:53.959Z,99581.59
2022-11-22T02:52:22.126Z,99577.00
2022-11-22T02:54:50.175Z,99568.13
2022-11-22T02:57:18.218Z,99568.84
2022-11-22T02:59:46.262Z,99559.22
2022-11-22T03:02:15.719Z,99559.22
2022-11-22T03:04:43.801Z,99554.91
2022-11-22T03:07:11.937Z,99553.81
2022-11-22T03:09:40.005Z,99557.75
2022-11-22T03:12:08.272Z,99546.19
2022-11-22T03:14:36.377Z,99541.75
2022-11-22T03:17:04.443Z,99534.78
2022-11-22T03:19:34.290Z,99531.44
2022-11-22T03:22:02.363Z,99533.72
2022-11-22T03:24:30.408Z,99524.94
2022-11-22T03:26:58.499Z,99525.03
2022-11-22T03:29:26.688Z,99515.84
2022-11-22T03:31:57.606Z,99525.69
2022-11-22T03:34:25.659Z,99512.03
2022-11-22T03:36:55.144Z,99514.91
2022-11-22T03:39:23.251Z,99511.31
2022-11-22T03:41:51.344Z,99520.66
2022-11-22T03:44:19.465Z,99511.78
2022-11-22T03:46:47.897Z,99512.59
2022-11-22T03:49:16.092Z,99509.00
2022-11-22T03:51:44.210Z,99504.69
2022-11-22T03:54:14.264Z,99504.44
2022-11-22T03:56:42.359Z,99503.84
2022-11-22T03:59:10.493Z,99500.97
2022-11-22T04:01:38.669Z,99494.59
2022-11-22T04:04:06.920Z,99490.16
2022-11-22T04:06:35.012Z,99490.97
2022-11-22T04:09:03.181Z,99479.81
2022-11-22T04:11:32.960Z,99470.94
2022-11-22T04:14:18.552Z,99467.31
2022-11-22T04:16:46.596Z,99463.97
2022-11-22T04:19:14.712Z,99462.44
2022-11-22T04:21:41.832Z,99452.44
2022-11-22T04:24:28.200Z,99445.91
2022-11-22T04:26:57.698Z,99443.03
2022-11-22T04:29:25.749Z,99445.66
2022-11-22T04:32:11.774Z,99448.31
2022-11-22T04:34:39.897Z,99437.78
2022-11-22T04:37:07.966Z,99446.28
2022-11-22T04:39:36.098Z,99441.97
2022-11-22T04:42:23.627Z,99449.47
2022-11-22T04:44:51.753Z,99437.41
2022-11-22T04:47:33.913Z,99439.34
2022-11-22T04:50:02.371Z,99436.56
2022-11-22T04:52:48.364Z,99427.91
2022-11-22T04:55:16.459Z,99425.84
2022-11-22T04:57:45.905Z,99412.50
2022-11-22T05:00:14.139Z,99409.84
2022-11-22T05:02:42.192Z,99404.56
2022-11-22T05:05:10.808Z,99388.59
2022-11-22T05:07:38.987Z,99391.34
2022-11-22T05:10:07.480Z,99385.81
2022-11-22T05:12:35.617Z,99384.72
2022-11-22T05:15:06.338Z,99380.00
2022-11-22T05:17:34.479Z,99379.84
2022-11-22T05:20:02.810Z,99374.31
2022-11-22T05:22:44.942Z,99372.78
2022-11-22T05:25:13.032Z,99369.72
2022-11-22T05:27:41.217Z,99366.81
2022-11-22T05:30:11.086Z,99377.25
2022-11-22T05:32:39.121Z,99378.25
2022-11-22T05:35:07.533Z,99368.50
2022-11-22T05:37:35.578Z,99363.91
2022-11-22T05:40:03.672Z,99361.69
2022-11-22T05:42:32.630Z,99359.38
2022-11-22T05:45:00.676Z,99358.13
2022-11-22T05:47:30.121Z,99352.69
2022-11-22T05:49:58.222Z,99355.63
2022-11-22T05:52:26.300Z,99344.50
2022-11-22T05:54:54.373Z,99345.31
2022-11-22T05:57:22.510Z,99339.75
2022-11-22T05:59:50.647Z,99331.72
2022-11-22T06:02:18.859Z,99333.94
2022-11-22T06:04:48.342Z,99333.94
2022-11-22T06:07:16.599Z,99328.50
2022-11-22T06:09:45.452Z,99327.56
2022-11-22T06:12:13.528Z,99322.00
2022-11-22T06:14:43.536Z,99311.97
2022-11-22T06:17:11.880Z,99314.19
2022-11-22T06:19:40.002Z,99313.06
2022-11-22T06:22:10.291Z,99326.03
2022-11-22T06:24:38.364Z,99313.91
2022-11-22T06:27:06.382Z,99310.00
2022-11-22T06:29:34.503Z,99308.63
2022-11-22T06:32:04.019Z,99304.19
2022-11-22T06:34:32.400Z,99291.34
2022-11-22T06:37:01.320Z,99281.31
2022-11-22T06:39:31.243Z,99290.97
2022-11-22T06:41:59.799Z,99291.78
2022-11-22T06:44:27.894Z,99286.34
2022-11-22T06:46:55.938Z,99267.69
2022-11-22T06:49:24.035Z,99274.38
2022-11-22T06:51:52.179Z,99281.06
2022-11-22T06:54:20.372Z,99284.44
2022-11-22T06:56:49.962Z,99276.59
2022-11-22T06:59:18.071Z,99280.09
2022-11-22T07:01:46.260Z,99272.56
2022-11-22T07:04:14.370Z,99266.84
2022-11-22T07:06:44.308Z,99270.22
2022-11-22T07:09:12.926Z,99270.06
2022-11-22T07:11:41.292Z,99262.09
2022-11-22T07:14:10.891Z,99259.47
2022-11-22T07:16:39.415Z,99269.91
2022-11-22T07:19:08.164Z,99256.66
2022-11-22T07:21:37.543Z,99252.91
2022-11-22T07:24:06.806Z,99266.97
2022-11-22T07:26:34.875Z,99259.75
2022-11-22T07:29:02.992Z,99247.16
2022-11-22T07:31:32.550Z,99251.38
2022-11-22T07:34:01.111Z,99246.50
2022-11-22T07:36:30.533Z,99251.34
2022-11-22T07:38:58.644Z,99249.25
2022-11-22T07:41:26.810Z,99244.63
2022-11-22T07:43:55.822Z,99250.50
2022-11-22T07:46:25.067Z,99234.31
2022-11-22T07:48:54.583Z,99232.66
2022-11-22T07:51:22.741Z,99227.06
2022-11-22T07:53:51.072Z,99227.75
2022-11-22T07:56:19.254Z,99229.72
2022-11-22T07:58:47.407Z,99236.56
2022-11-22T08:01:16.806Z,99237.66
2022-11-22T08:03:45.115Z,99239.88
2022-11-22T08:06:14.882Z,99236.94
2022-11-22T08:08:43.087Z,99241.53
2022-11-22T08:11:11.527Z,99235.28
2022-11-22T08:13:39.649Z,99238.75
2022-11-22T08:16:09.669Z,99240.31
2022-11-22T08:18:38.757Z,99239.16
2022-11-22T08:21:07.807Z,99230.25
2022-11-22T08:23:37.784Z,99225.78
2022-11-22T08:26:06.552Z,99227.59
2022-11-22T08:28:34.728Z,99225.78
2022-11-22T08:31:04.895Z,99227.16
2022-11-22T08:33:33.043Z,99229.81
2022-11-22T08:36:01.137Z,99221.41
2022-11-22T08:38:29.234Z,99214.84
2022-11-22T08:40:58.988Z,99210.06
2022-11-22T08:43:27.153Z,99209.78
2022-11-22T08:45:56.172Z,99206.84
2022-11-22T08:48:24.362Z,99208.22
2022-11-22T08:50:53.130Z,99200.13
2022-11-22T08:53:21.466Z,99200.97
2022-11-22T08:55:49.536Z,99200.69
2022-11-22T08:58:19.060Z,99201.34
2022-11-22T09:00:47.256Z,99198.03
2022-11-22T09:03:15.293Z,99201.34
2022-11-22T09:08:35.926Z,99182.03
2022-11-22T09:11:05.708Z,99186.53
2022-11-22T09:13:35.375Z,99183.44
2022-11-22T09:16:03.920Z,99186.22
2022-11-22T09:18:32.206Z,99176.31
2022-11-22T09:21:00.621Z,99179.94
2022-11-22T09:23:28.815Z,99177.16
2022-11-22T09:26:00.208Z,99177.97
2022-11-22T09:28:28.521Z,99183.81
2022-11-22T09:31:01.891Z,99176.56
2022-11-22T09:33:30.043Z,99174.75
2022-11-22T09:36:02.264Z,99178.50
2022-11-22T09:38:30.719Z,99169.28
2022-11-22T09:40:59.487Z,99174.59
2022-11-22T09:43:32.426Z,99174.44
2022-11-22T09:46:15.312Z,99175.41
2022-11-22T09:48:54.515Z,99173.84
2022-11-22T09:51:24.636Z,99170.06
2022-11-22T09:53:54.515Z,99165.75
2022-11-22T09:56:24.358Z,99166.28
2022-11-22T09:58:54.191Z,99161.50
2022-11-22T10:01:24.732Z,99163.16
2022-11-22T10:03:56.191Z,99162.03
2022-11-22T10:06:28.017Z,99153.38
2022-11-22T10:09:00.744Z,99157.56
2022-11-22T10:11:36.740Z,99155.03
2022-11-22T10:14:07.989Z,99157.41
2022-11-22T10:16:39.829Z,99161.28
2022-11-22T10:19:13.186Z,99155.28
2022-11-22T10:21:42.301Z,99156.97
2022-11-22T10:24:13.544Z,99148.00
2022-11-22T10:26:41.938Z,99151.84
2022-11-22T10:29:26.290Z,99149.66
2022-11-22T10:31:59.476Z,99152.03
2022-11-22T10:34:36.554Z,99153.53
2022-11-22T10:37:06.713Z,99152.38
